ADDS METAR Data INFO
IDs: Format: Raw Decoded Include TAF

Data at: 0451 UTC 25 May 2018

METAR for:PADK (Adak (NAS), AK, US)
Text:PADK 250356Z AUTO 33020G23KT 10SM FEW017 SCT029 BKN035 07/04 A2971 RMK AO2 RAB36E56 SLP062 P0000 T00670044
Temperature: 6.7°C ( 44°F)
Dewpoint: 4.4°C ( 40°F) [RH = 85%]
Pressure (altimeter):29.71 inches Hg (1006.2 mb) [Sea level pressure: 1006.2 mb]
Winds:from the NNW (330 degrees) at 23 MPH (20 knots; 10.3 m/s) gusting to 26 MPH (23 knots; 11.8 m/s)
Visibility:10 or more sm (16+ km)
Ceiling:3500 feet AGL
Clouds: few clouds at 1700 feet AGL, scattered clouds at 2900 feet AGL, broken clouds at 3500 feet AGL
QC Flag:automated observation with no human augmentation
Text:PADK 250256Z AUTO 34019G23KT 10SM FEW019 08/04 A2970 RMK AO2 RAB0157E10 SLP056 P0000 60000 T00780044 51006
Temperature: 7.8°C ( 46°F)
Dewpoint: 4.4°C ( 40°F) [RH = 79%]
Pressure (altimeter):29.70 inches Hg (1005.8 mb) [Sea level pressure: 1005.6 mb]
Winds:from the NNW (340 degrees) at 22 MPH (19 knots; 9.8 m/s) gusting to 26 MPH (23 knots; 11.8 m/s)
Visibility:10 or more sm (16+ km)
Ceiling:at least 12,000 feet AGL
Clouds: few clouds at 1900 feet AGL
QC Flag:automated observation with no human augmentation
Text:PADK 250249Z AUTO 34018G24KT 10SM SCT019 08/04 A2969 RMK AO2 RAB0157E10 P0000
Temperature: 8.0°C ( 46°F)
Dewpoint: 4.0°C ( 39°F) [RH = 76%]
Pressure (altimeter):29.69 inches Hg (1005.5 mb)
Winds:from the NNW (340 degrees) at 21 MPH (18 knots; 9.3 m/s) gusting to 28 MPH (24 knots; 12.3 m/s)
Visibility:10 or more sm (16+ km)
Ceiling:at least 12,000 feet AGL
Clouds: scattered clouds at 1900 feet AGL
QC Flag:automated observation with no human augmentation
Text:PADK 250156Z AUTO 34017G23KT 5SM HZ FEW015 BKN022 OVC037 07/03 A2969 RMK AO2 SLP055 T00670033
Temperature: 6.7°C ( 44°F)
Dewpoint: 3.3°C ( 38°F) [RH = 79%]
Pressure (altimeter):29.69 inches Hg (1005.5 mb) [Sea level pressure: 1005.5 mb]
Winds:from the NNW (340 degrees) at 20 MPH (17 knots; 8.7 m/s) gusting to 26 MPH (23 knots; 11.8 m/s)
Visibility: 5 sm ( 8 km)
Ceiling:2200 feet AGL
Clouds: few clouds at 1500 feet AGL, broken clouds at 2200 feet AGL, overcast cloud deck at 3700 feet AGL
Weather:HZ (haze)
QC Flag:automated observation with no human augmentation
Text:PADK 250154Z AUTO 35018G23KT 8SM FEW015 BKN025 OVC037 07/03 A2969 RMK AO2
Temperature: 7.0°C ( 45°F)
Dewpoint: 3.0°C ( 37°F) [RH = 76%]
Pressure (altimeter):29.69 inches Hg (1005.5 mb)
Winds:from the N (350 degrees) at 21 MPH (18 knots; 9.3 m/s) gusting to 26 MPH (23 knots; 11.8 m/s)
Visibility: 8 sm ( 13 km)
Ceiling:2500 feet AGL
Clouds: few clouds at 1500 feet AGL, broken clouds at 2500 feet AGL, overcast cloud deck at 3700 feet AGL
QC Flag:automated observation with no human augmentation
Text:PADK 250056Z AUTO 32013G18KT 10SM SCT024 OVC037 07/02 A2968 RMK AO2 SLP049 T00720022
Temperature: 7.2°C ( 45°F)
Dewpoint: 2.2°C ( 36°F) [RH = 70%]
Pressure (altimeter):29.68 inches Hg (1005.2 mb) [Sea level pressure: 1004.9 mb]
Winds:from the NW (320 degrees) at 15 MPH (13 knots; 6.7 m/s) gusting to 21 MPH (18 knots; 9.3 m/s)
Visibility:10 or more sm (16+ km)
Ceiling:3700 feet AGL
Clouds: scattered clouds at 2400 feet AGL, overcast cloud deck at 3700 feet AGL
QC Flag:automated observation with no human augmentation
Text:PADK 250026Z AUTO 32011KT 280V350 10SM SCT028 OVC037 07/03 A2967 RMK AO2
Temperature: 7.0°C ( 45°F)
Dewpoint: 3.0°C ( 37°F) [RH = 76%]
Pressure (altimeter):29.67 inches Hg (1004.8 mb)
Winds:from the NW (320 degrees) at 13 MPH (11 knots; 5.7 m/s)
Visibility:10 or more sm (16+ km)
Ceiling:3700 feet AGL
Clouds: scattered clouds at 2800 feet AGL, overcast cloud deck at 3700 feet AGL
QC Flag:automated observation with no human augmentation
Text:PADK 242356Z AUTO 31009G18KT 10SM OVC027 07/02 A2966 RMK AO2 SLP045 60003 T00670022 10072 20044 53015
Temperature: 6.7°C ( 44°F)
Dewpoint: 2.2°C ( 36°F) [RH = 73%]
Pressure (altimeter):29.66 inches Hg (1004.5 mb) [Sea level pressure: 1004.5 mb]
Winds:from the NW (310 degrees) at 10 MPH (9 knots; 4.6 m/s) gusting to 21 MPH (18 knots; 9.3 m/s)
Visibility:10 or more sm (16+ km)
Ceiling:2700 feet AGL
Clouds: overcast cloud deck at 2700 feet AGL
QC Flag:automated observation with no human augmentation
Text:PADK 242256Z AUTO 34010G17KT 10SM OVC025 07/03 A2965 RMK AO2 SLP039 T00720033
Temperature: 7.2°C ( 45°F)
Dewpoint: 3.3°C ( 38°F) [RH = 76%]
Pressure (altimeter):29.65 inches Hg (1004.1 mb) [Sea level pressure: 1003.9 mb]
Winds:from the NNW (340 degrees) at 12 MPH (10 knots; 5.1 m/s) gusting to 20 MPH (17 knots; 8.7 m/s)
Visibility:10 or more sm (16+ km)
Ceiling:2500 feet AGL
Clouds: overcast cloud deck at 2500 feet AGL
QC Flag:automated observation with no human augmentation

TAF for:PADK (Adak (NAS), AK, US)
Text:No data found